sensor_id;sensor_type;location;lat;lon;timestamp;P1;durP1;ratioP1;P2;durP2;ratioP2
47804;SDS011;33568;45.286;9.900;2023-12-20T00:00:08;91.10;;;40.10;;
47804;SDS011;33568;45.286;9.900;2023-12-20T00:02:35;115.68;;;42.42;;
47804;SDS011;33568;45.286;9.900;2023-12-20T00:05:01;78.80;;;38.47;;
47804;SDS011;33568;45.286;9.900;2023-12-20T00:07:28;75.15;;;38.35;;
47804;SDS011;33568;45.286;9.900;2023-12-20T00:09:54;45.90;;;35.33;;
47804;SDS011;33568;45.286;9.900;2023-12-20T00:12:21;67.72;;;36.13;;
47804;SDS011;33568;45.286;9.900;2023-12-20T00:14:47;46.33;;;35.35;;
47804;SDS011;33568;45.286;9.900;2023-12-20T00:17:13;59.55;;;38.58;;
47804;SDS011;33568;45.286;9.900;2023-12-20T00:19:40;51.10;;;37.33;;
47804;SDS011;33568;45.286;9.900;2023-12-20T00:24:33;48.13;;;34.50;;
47804;SDS011;33568;45.286;9.900;2023-12-20T00:26:59;46.72;;;37.22;;
47804;SDS011;33568;45.286;9.900;2023-12-20T00:29:26;41.97;;;35.15;;
47804;SDS011;33568;45.286;9.900;2023-12-20T00:31:52;39.90;;;35.47;;
47804;SDS011;33568;45.286;9.900;2023-12-20T00:36:45;46.70;;;38.47;;
47804;SDS011;33568;45.286;9.900;2023-12-20T00:39:11;45.47;;;39.70;;
47804;SDS011;33568;45.286;9.900;2023-12-20T00:41:37;48.92;;;39.35;;
47804;SDS011;33568;45.286;9.900;2023-12-20T00:44:04;51.92;;;37.75;;
47804;SDS011;33568;45.286;9.900;2023-12-20T00:48:57;50.35;;;41.53;;
47804;SDS011;33568;45.286;9.900;2023-12-20T00:51:23;50.90;;;41.35;;
47804;SDS011;33568;45.286;9.900;2023-12-20T00:56:20;48.45;;;39.45;;
47804;SDS011;33568;45.286;9.900;2023-12-20T00:58:47;49.95;;;40.10;;
47804;SDS011;33568;45.286;9.900;2023-12-20T01:01:13;51.70;;;41.28;;
47804;SDS011;33568;45.286;9.900;2023-12-20T01:03:40;51.97;;;41.13;;
47804;SDS011;33568;45.286;9.900;2023-12-20T01:06:07;51.15;;;42.35;;
47804;SDS011;33568;45.286;9.900;2023-12-20T01:08:33;50.40;;;41.78;;
47804;SDS011;33568;45.286;9.900;2023-12-20T01:11:03;44.70;;;38.92;;
47804;SDS011;33568;45.286;9.900;2023-12-20T01:13:30;41.15;;;35.63;;
47804;SDS011;33568;45.286;9.900;2023-12-20T01:18:23;42.47;;;35.20;;
47804;SDS011;33568;45.286;9.900;2023-12-20T01:20:49;41.17;;;34.35;;
47804;SDS011;33568;45.286;9.900;2023-12-20T01:23:16;41.45;;;33.35;;
47804;SDS011;33568;45.286;9.900;2023-12-20T01:25:42;41.00;;;33.75;;
47804;SDS011;33568;45.286;9.900;2023-12-20T01:28:09;45.95;;;36.35;;
47804;SDS011;33568;45.286;9.900;2023-12-20T01:33:01;50.65;;;35.15;;
47804;SDS011;33568;45.286;9.900;2023-12-20T01:35:28;65.97;;;36.65;;
47804;SDS011;33568;45.286;9.900;2023-12-20T01:37:54;79.97;;;35.47;;
47804;SDS011;33568;45.286;9.900;2023-12-20T01:40:24;37.75;;;33.58;;
47804;SDS011;33568;45.286;9.900;2023-12-20T01:43:07;38.95;;;34.22;;
47804;SDS011;33568;45.286;9.900;2023-12-20T01:45:34;40.15;;;34.67;;
47804;SDS011;33568;45.286;9.900;2023-12-20T01:48:01;42.97;;;35.08;;
47804;SDS011;33568;45.286;9.900;2023-12-20T01:50:29;42.35;;;37.75;;
47804;SDS011;33568;45.286;9.900;2023-12-20T01:52:57;44.45;;;37.70;;
47804;SDS011;33568;45.286;9.900;2023-12-20T01:55:27;45.53;;;35.97;;
47804;SDS011;33568;45.286;9.900;2023-12-20T01:57:57;36.75;;;32.80;;
47804;SDS011;33568;45.286;9.900;2023-12-20T02:00:25;36.60;;;32.20;;
47804;SDS011;33568;45.286;9.900;2023-12-20T02:02:53;38.88;;;32.85;;
47804;SDS011;33568;45.286;9.900;2023-12-20T02:05:23;42.75;;;34.00;;
47804;SDS011;33568;45.286;9.900;2023-12-20T02:07:51;38.03;;;32.10;;
47804;SDS011;33568;45.286;9.900;2023-12-20T02:10:17;34.80;;;31.10;;
47804;SDS011;33568;45.286;9.900;2023-12-20T02:12:44;37.70;;;31.95;;
47804;SDS011;33568;45.286;9.900;2023-12-20T02:15:10;41.47;;;31.40;;
47804;SDS011;33568;45.286;9.900;2023-12-20T02:17:37;32.78;;;28.35;;
47804;SDS011;33568;45.286;9.900;2023-12-20T02:20:05;52.50;;;28.70;;
47804;SDS011;33568;45.286;9.900;2023-12-20T02:22:32;204.55;;;32.63;;
47804;SDS011;33568;45.286;9.900;2023-12-20T02:24:58;116.88;;;31.85;;
47804;SDS011;33568;45.286;9.900;2023-12-20T02:27:25;37.17;;;31.92;;
47804;SDS011;33568;45.286;9.900;2023-12-20T02:29:51;43.65;;;32.80;;
47804;SDS011;33568;45.286;9.900;2023-12-20T02:32:18;235.57;;;37.83;;
47804;SDS011;33568;45.286;9.900;2023-12-20T02:34:46;359.13;;;41.65;;
47804;SDS011;33568;45.286;9.900;2023-12-20T02:37:13;420.25;;;43.97;;
47804;SDS011;33568;45.286;9.900;2023-12-20T02:39:40;405.00;;;45.28;;
47804;SDS011;33568;45.286;9.900;2023-12-20T02:42:07;323.08;;;45.13;;
47804;SDS011;33568;45.286;9.900;2023-12-20T02:46:59;274.10;;;39.15;;
47804;SDS011;33568;45.286;9.900;2023-12-20T02:49:26;195.95;;;41.95;;
47804;SDS011;33568;45.286;9.900;2023-12-20T02:51:52;151.70;;;42.45;;
47804;SDS011;33568;45.286;9.900;2023-12-20T02:54:18;81.82;;;38.75;;
47804;SDS011;33568;45.286;9.900;2023-12-20T02:56:45;67.45;;;41.22;;
47804;SDS011;33568;45.286;9.900;2023-12-20T02:59:11;59.60;;;41.17;;
47804;SDS011;33568;45.286;9.900;2023-12-20T03:01:41;51.35;;;41.65;;
47804;SDS011;33568;45.286;9.900;2023-12-20T03:04:10;49.97;;;37.75;;
47804;SDS011;33568;45.286;9.900;2023-12-20T03:06:36;44.88;;;36.83;;
47804;SDS011;33568;45.286;9.900;2023-12-20T03:11:30;57.80;;;39.33;;
47804;SDS011;33568;45.286;9.900;2023-12-20T03:13:56;47.55;;;40.25;;
47804;SDS011;33568;45.286;9.900;2023-12-20T03:16:23;49.75;;;39.63;;
47804;SDS011;33568;45.286;9.900;2023-12-20T03:18:49;44.65;;;38.28;;
47804;SDS011;33568;45.286;9.900;2023-12-20T03:21:16;47.10;;;38.35;;
47804;SDS011;33568;45.286;9.900;2023-12-20T03:23:42;43.33;;;37.63;;
47804;SDS011;33568;45.286;9.900;2023-12-20T03:26:09;41.75;;;35.35;;
47804;SDS011;33568;45.286;9.900;2023-12-20T03:31:02;39.15;;;35.05;;
47804;SDS011;33568;45.286;9.900;2023-12-20T03:33:29;43.13;;;36.67;;
47804;SDS011;33568;45.286;9.900;2023-12-20T03:38:22;40.15;;;35.63;;
47804;SDS011;33568;45.286;9.900;2023-12-20T03:40:51;41.53;;;37.17;;
47804;SDS011;33568;45.286;9.900;2023-12-20T03:43:17;46.90;;;41.00;;
47804;SDS011;33568;45.286;9.900;2023-12-20T03:45:44;51.60;;;40.92;;
47804;SDS011;33568;45.286;9.900;2023-12-20T03:48:10;48.80;;;41.70;;
47804;SDS011;33568;45.286;9.900;2023-12-20T03:50:37;53.88;;;40.13;;
47804;SDS011;33568;45.286;9.900;2023-12-20T03:53:03;44.00;;;39.45;;
47804;SDS011;33568;45.286;9.900;2023-12-20T03:55:30;42.30;;;37.85;;
47804;SDS011;33568;45.286;9.900;2023-12-20T03:57:56;45.58;;;37.90;;
47804;SDS011;33568;45.286;9.900;2023-12-20T04:00:23;40.70;;;35.88;;
47804;SDS011;33568;45.286;9.900;2023-12-20T04:02:49;41.92;;;34.72;;
47804;SDS011;33568;45.286;9.900;2023-12-20T04:05:16;37.90;;;33.78;;
47804;SDS011;33568;45.286;9.900;2023-12-20T04:10:09;37.55;;;33.53;;
47804;SDS011;33568;45.286;9.900;2023-12-20T04:15:02;38.00;;;32.35;;
47804;SDS011;33568;45.286;9.900;2023-12-20T04:17:35;34.88;;;31.15;;
47804;SDS011;33568;45.286;9.900;2023-12-20T04:20:01;40.45;;;30.80;;
47804;SDS011;33568;45.286;9.900;2023-12-20T04:22:28;37.15;;;30.13;;
47804;SDS011;33568;45.286;9.900;2023-12-20T04:24:54;35.38;;;31.38;;
47804;SDS011;33568;45.286;9.900;2023-12-20T04:27:21;35.45;;;31.63;;
47804;SDS011;33568;45.286;9.900;2023-12-20T04:29:47;33.38;;;29.88;;
47804;SDS011;33568;45.286;9.900;2023-12-20T04:34:40;32.65;;;29.15;;
47804;SDS011;33568;45.286;9.900;2023-12-20T04:37:06;34.33;;;30.80;;
47804;SDS011;33568;45.286;9.900;2023-12-20T04:41:59;36.08;;;31.38;;
47804;SDS011;33568;45.286;9.900;2023-12-20T04:44:25;35.70;;;31.90;;
47804;SDS011;33568;45.286;9.900;2023-12-20T04:49:18;41.40;;;34.10;;
47804;SDS011;33568;45.286;9.900;2023-12-20T04:51:45;44.90;;;37.03;;
47804;SDS011;33568;45.286;9.900;2023-12-20T04:54:11;40.28;;;36.08;;
47804;SDS011;33568;45.286;9.900;2023-12-20T04:56:39;47.63;;;38.67;;
47804;SDS011;33568;45.286;9.900;2023-12-20T04:59:05;42.83;;;37.55;;
47804;SDS011;33568;45.286;9.900;2023-12-20T05:01:32;46.53;;;39.17;;
47804;SDS011;33568;45.286;9.900;2023-12-20T05:03:58;44.63;;;37.97;;
47804;SDS011;33568;45.286;9.900;2023-12-20T05:06:24;44.90;;;38.42;;
47804;SDS011;33568;45.286;9.900;2023-12-20T05:08:51;42.95;;;38.00;;
47804;SDS011;33568;45.286;9.900;2023-12-20T05:13:43;42.63;;;36.53;;
47804;SDS011;33568;45.286;9.900;2023-12-20T05:16:10;43.25;;;36.88;;
47804;SDS011;33568;45.286;9.900;2023-12-20T05:21:03;39.53;;;34.92;;
47804;SDS011;33568;45.286;9.900;2023-12-20T05:23:29;44.92;;;35.50;;
47804;SDS011;33568;45.286;9.900;2023-12-20T05:25:56;44.95;;;36.25;;
47804;SDS011;33568;45.286;9.900;2023-12-20T05:28:22;40.78;;;36.30;;
47804;SDS011;33568;45.286;9.900;2023-12-20T05:33:15;42.45;;;35.03;;
47804;SDS011;33568;45.286;9.900;2023-12-20T05:35:41;39.10;;;34.00;;
47804;SDS011;33568;45.286;9.900;2023-12-20T05:38:07;41.35;;;35.03;;
47804;SDS011;33568;45.286;9.900;2023-12-20T05:43:00;38.38;;;34.28;;
47804;SDS011;33568;45.286;9.900;2023-12-20T05:45:27;38.75;;;34.00;;
47804;SDS011;33568;45.286;9.900;2023-12-20T05:47:53;43.08;;;36.38;;
47804;SDS011;33568;45.286;9.900;2023-12-20T05:52:46;39.55;;;32.50;;
47804;SDS011;33568;45.286;9.900;2023-12-20T05:55:13;40.42;;;34.90;;
47804;SDS011;33568;45.286;9.900;2023-12-20T05:57:40;39.35;;;35.05;;
47804;SDS011;33568;45.286;9.900;2023-12-20T06:00:07;44.22;;;35.90;;
47804;SDS011;33568;45.286;9.900;2023-12-20T06:02:41;40.58;;;35.42;;
47804;SDS011;33568;45.286;9.900;2023-12-20T06:05:07;42.50;;;35.03;;
47804;SDS011;33568;45.286;9.900;2023-12-20T06:10:00;51.53;;;36.10;;
47804;SDS011;33568;45.286;9.900;2023-12-20T06:12:26;45.50;;;36.30;;
47804;SDS011;33568;45.286;9.900;2023-12-20T06:14:54;55.42;;;38.92;;
47804;SDS011;33568;45.286;9.900;2023-12-20T06:17:20;58.00;;;41.78;;
47804;SDS011;33568;45.286;9.900;2023-12-20T06:19:47;53.25;;;41.65;;
47804;SDS011;33568;45.286;9.900;2023-12-20T06:22:17;47.92;;;39.40;;
47804;SDS011;33568;45.286;9.900;2023-12-20T06:24:43;52.33;;;39.13;;
47804;SDS011;33568;45.286;9.900;2023-12-20T06:27:09;47.78;;;35.80;;
47804;SDS011;33568;45.286;9.900;2023-12-20T06:29:36;37.45;;;33.33;;
47804;SDS011;33568;45.286;9.900;2023-12-20T06:32:02;44.13;;;34.20;;
47804;SDS011;33568;45.286;9.900;2023-12-20T06:34:29;41.85;;;35.15;;
47804;SDS011;33568;45.286;9.900;2023-12-20T06:36:55;39.65;;;35.40;;
47804;SDS011;33568;45.286;9.900;2023-12-20T06:39:22;42.92;;;38.03;;
47804;SDS011;33568;45.286;9.900;2023-12-20T06:41:48;46.53;;;36.92;;
47804;SDS011;33568;45.286;9.900;2023-12-20T06:44:15;48.08;;;37.90;;
47804;SDS011;33568;45.286;9.900;2023-12-20T06:46:41;46.20;;;36.22;;
47804;SDS011;33568;45.286;9.900;2023-12-20T06:49:09;43.83;;;36.75;;
47804;SDS011;33568;45.286;9.900;2023-12-20T06:51:35;42.78;;;36.55;;
47804;SDS011;33568;45.286;9.900;2023-12-20T06:54:01;43.42;;;36.38;;
47804;SDS011;33568;45.286;9.900;2023-12-20T06:56:28;47.08;;;37.28;;
47804;SDS011;33568;45.286;9.900;2023-12-20T07:01:21;48.20;;;39.38;;
47804;SDS011;33568;45.286;9.900;2023-12-20T07:03:48;48.00;;;37.85;;
47804;SDS011;33568;45.286;9.900;2023-12-20T07:06:14;50.05;;;36.15;;
47804;SDS011;33568;45.286;9.900;2023-12-20T07:08:42;49.00;;;37.85;;
47804;SDS011;33568;45.286;9.900;2023-12-20T07:11:09;66.55;;;40.58;;
47804;SDS011;33568;45.286;9.900;2023-12-20T07:13:35;46.55;;;36.47;;
47804;SDS011;33568;45.286;9.900;2023-12-20T07:16:01;58.55;;;38.80;;
47804;SDS011;33568;45.286;9.900;2023-12-20T07:18:28;67.05;;;42.35;;
47804;SDS011;33568;45.286;9.900;2023-12-20T07:20:55;55.35;;;39.53;;
47804;SDS011;33568;45.286;9.900;2023-12-20T07:25:47;47.30;;;34.40;;
47804;SDS011;33568;45.286;9.900;2023-12-20T07:28:14;50.20;;;36.38;;
47804;SDS011;33568;45.286;9.900;2023-12-20T07:30:40;40.85;;;35.10;;
47804;SDS011;33568;45.286;9.900;2023-12-20T07:33:07;46.30;;;36.20;;
47804;SDS011;33568;45.286;9.900;2023-12-20T07:35:34;50.13;;;36.78;;
47804;SDS011;33568;45.286;9.900;2023-12-20T07:38:01;43.25;;;37.03;;
47804;SDS011;33568;45.286;9.900;2023-12-20T07:40:28;42.03;;;35.10;;
47804;SDS011;33568;45.286;9.900;2023-12-20T07:42:54;41.58;;;34.85;;
47804;SDS011;33568;45.286;9.900;2023-12-20T07:45:21;47.72;;;36.38;;
47804;SDS011;33568;45.286;9.900;2023-12-20T07:47:47;46.75;;;35.65;;
47804;SDS011;33568;45.286;9.900;2023-12-20T07:50:14;46.75;;;36.00;;
47804;SDS011;33568;45.286;9.900;2023-12-20T07:55:07;41.50;;;33.17;;
47804;SDS011;33568;45.286;9.900;2023-12-20T08:00:00;53.35;;;35.90;;
47804;SDS011;33568;45.286;9.900;2023-12-20T08:02:26;43.35;;;36.78;;
47804;SDS011;33568;45.286;9.900;2023-12-20T08:04:53;43.72;;;37.47;;
47804;SDS011;33568;45.286;9.900;2023-12-20T08:07:19;51.22;;;39.03;;
47804;SDS011;33568;45.286;9.900;2023-12-20T08:09:45;49.70;;;38.35;;
47804;SDS011;33568;45.286;9.900;2023-12-20T08:12:12;50.53;;;39.63;;
47804;SDS011;33568;45.286;9.900;2023-12-20T08:14:38;49.33;;;39.60;;
47804;SDS011;33568;45.286;9.900;2023-12-20T08:17:04;47.50;;;40.45;;
47804;SDS011;33568;45.286;9.900;2023-12-20T08:19:31;46.83;;;40.03;;
47804;SDS011;33568;45.286;9.900;2023-12-20T08:21:57;51.47;;;42.40;;
47804;SDS011;33568;45.286;9.900;2023-12-20T08:24:24;52.92;;;40.83;;
47804;SDS011;33568;45.286;9.900;2023-12-20T08:26:50;54.28;;;41.45;;
47804;SDS011;33568;45.286;9.900;2023-12-20T08:29:17;56.13;;;43.22;;
47804;SDS011;33568;45.286;9.900;2023-12-20T08:34:10;47.37;;;37.00;;
47804;SDS011;33568;45.286;9.900;2023-12-20T08:36:38;45.78;;;37.20;;
47804;SDS011;33568;45.286;9.900;2023-12-20T08:39:04;47.92;;;40.15;;
47804;SDS011;33568;45.286;9.900;2023-12-20T08:41:33;59.05;;;44.83;;
47804;SDS011;33568;45.286;9.900;2023-12-20T08:44:00;52.78;;;40.10;;
47804;SDS011;33568;45.286;9.900;2023-12-20T08:46:27;50.00;;;40.95;;
47804;SDS011;33568;45.286;9.900;2023-12-20T08:48:53;45.75;;;36.00;;
47804;SDS011;33568;45.286;9.900;2023-12-20T08:51:19;52.50;;;39.58;;
47804;SDS011;33568;45.286;9.900;2023-12-20T08:53:46;55.15;;;42.83;;
47804;SDS011;33568;45.286;9.900;2023-12-20T08:58:39;48.47;;;37.40;;
47804;SDS011;33568;45.286;9.900;2023-12-20T09:01:06;51.92;;;38.70;;
47804;SDS011;33568;45.286;9.900;2023-12-20T09:03:33;49.97;;;38.65;;
47804;SDS011;33568;45.286;9.900;2023-12-20T09:05:59;45.65;;;37.75;;
47804;SDS011;33568;45.286;9.900;2023-12-20T09:10:52;48.22;;;37.38;;
47804;SDS011;33568;45.286;9.900;2023-12-20T09:13:18;53.17;;;37.88;;
47804;SDS011;33568;45.286;9.900;2023-12-20T09:15:46;46.80;;;37.47;;
47804;SDS011;33568;45.286;9.900;2023-12-20T09:18:12;45.28;;;34.92;;
47804;SDS011;33568;45.286;9.900;2023-12-20T09:23:05;41.88;;;34.78;;
47804;SDS011;33568;45.286;9.900;2023-12-20T09:25:31;48.70;;;36.88;;
47804;SDS011;33568;45.286;9.900;2023-12-20T09:27:58;48.53;;;37.15;;
47804;SDS011;33568;45.286;9.900;2023-12-20T09:30:24;45.17;;;36.80;;
47804;SDS011;33568;45.286;9.900;2023-12-20T09:32:51;51.42;;;38.08;;
47804;SDS011;33568;45.286;9.900;2023-12-20T09:35:17;48.92;;;38.28;;
47804;SDS011;33568;45.286;9.900;2023-12-20T09:40:10;44.08;;;35.80;;
47804;SDS011;33568;45.286;9.900;2023-12-20T09:42:58;46.38;;;36.65;;
47804;SDS011;33568;45.286;9.900;2023-12-20T09:45:34;49.95;;;38.22;;
47804;SDS011;33568;45.286;9.900;2023-12-20T09:48:01;56.75;;;43.70;;
47804;SDS011;33568;45.286;9.900;2023-12-20T09:50:30;52.70;;;38.60;;
47804;SDS011;33568;45.286;9.900;2023-12-20T09:52:58;48.90;;;38.15;;
47804;SDS011;33568;45.286;9.900;2023-12-20T09:55:28;50.15;;;38.08;;
47804;SDS011;33568;45.286;9.900;2023-12-20T09:57:59;43.63;;;35.40;;
47804;SDS011;33568;45.286;9.900;2023-12-20T10:00:25;52.90;;;40.45;;
47804;SDS011;33568;45.286;9.900;2023-12-20T10:02:58;52.72;;;41.20;;
47804;SDS011;33568;45.286;9.900;2023-12-20T10:05:26;65.22;;;46.20;;
47804;SDS011;33568;45.286;9.900;2023-12-20T10:07:53;51.90;;;40.60;;
47804;SDS011;33568;45.286;9.900;2023-12-20T10:10:19;48.55;;;36.08;;
47804;SDS011;33568;45.286;9.900;2023-12-20T10:15:26;49.67;;;36.58;;
47804;SDS011;33568;45.286;9.900;2023-12-20T10:17:53;46.40;;;35.10;;
47804;SDS011;33568;45.286;9.900;2023-12-20T10:20:20;41.67;;;35.22;;
47804;SDS011;33568;45.286;9.900;2023-12-20T10:22:46;42.38;;;35.75;;
47804;SDS011;33568;45.286;9.900;2023-12-20T10:25:14;45.97;;;36.13;;
47804;SDS011;33568;45.286;9.900;2023-12-20T10:27:41;47.33;;;33.90;;
47804;SDS011;33568;45.286;9.900;2023-12-20T10:30:07;44.00;;;34.72;;
47804;SDS011;33568;45.286;9.900;2023-12-20T10:32:34;42.25;;;32.83;;
47804;SDS011;33568;45.286;9.900;2023-12-20T10:35:01;45.58;;;34.70;;
47804;SDS011;33568;45.286;9.900;2023-12-20T10:37:28;44.42;;;35.78;;
47804;SDS011;33568;45.286;9.900;2023-12-20T10:39:55;53.58;;;34.63;;
47804;SDS011;33568;45.286;9.900;2023-12-20T10:42:26;44.30;;;34.95;;
47804;SDS011;33568;45.286;9.900;2023-12-20T10:44:54;58.15;;;42.38;;
47804;SDS011;33568;45.286;9.900;2023-12-20T10:49:48;51.47;;;38.17;;
47804;SDS011;33568;45.286;9.900;2023-12-20T10:52:17;44.67;;;36.13;;
47804;SDS011;33568;45.286;9.900;2023-12-20T10:54:44;42.30;;;33.70;;
47804;SDS011;33568;45.286;9.900;2023-12-20T10:57:11;43.25;;;35.28;;
47804;SDS011;33568;45.286;9.900;2023-12-20T10:59:38;39.00;;;33.17;;
47804;SDS011;33568;45.286;9.900;2023-12-20T11:02:05;37.90;;;30.58;;
47804;SDS011;33568;45.286;9.900;2023-12-20T11:07:27;39.13;;;27.90;;
47804;SDS011;33568;45.286;9.900;2023-12-20T11:10:03;37.55;;;28.77;;
47804;SDS011;33568;45.286;9.900;2023-12-20T11:12:48;37.53;;;29.95;;
47804;SDS011;33568;45.286;9.900;2023-12-20T11:15:38;38.80;;;30.10;;
47804;SDS011;33568;45.286;9.900;2023-12-20T11:18:04;40.35;;;32.15;;
47804;SDS011;33568;45.286;9.900;2023-12-20T11:20:39;39.95;;;33.65;;
47804;SDS011;33568;45.286;9.900;2023-12-20T11:23:06;40.50;;;33.13;;
47804;SDS011;33568;45.286;9.900;2023-12-20T11:25:53;39.13;;;31.27;;
47804;SDS011;33568;45.286;9.900;2023-12-20T11:28:24;39.92;;;34.13;;
47804;SDS011;33568;45.286;9.900;2023-12-20T11:30:55;41.28;;;34.33;;
47804;SDS011;33568;45.286;9.900;2023-12-20T11:33:25;41.35;;;35.60;;
47804;SDS011;33568;45.286;9.900;2023-12-20T11:35:55;44.08;;;35.55;;
47804;SDS011;33568;45.286;9.900;2023-12-20T11:38:23;41.38;;;34.28;;
47804;SDS011;33568;45.286;9.900;2023-12-20T11:40:50;47.05;;;34.80;;
47804;SDS011;33568;45.286;9.900;2023-12-20T11:43:29;42.55;;;34.72;;
47804;SDS011;33568;45.286;9.900;2023-12-20T11:46:05;44.22;;;32.10;;
47804;SDS011;33568;45.286;9.900;2023-12-20T11:48:34;39.60;;;30.70;;
47804;SDS011;33568;45.286;9.900;2023-12-20T11:51:01;36.40;;;29.70;;
47804;SDS011;33568;45.286;9.900;2023-12-20T11:53:29;36.45;;;30.58;;
47804;SDS011;33568;45.286;9.900;2023-12-20T11:55:57;38.50;;;29.98;;
47804;SDS011;33568;45.286;9.900;2023-12-20T12:00:51;31.55;;;27.77;;
47804;SDS011;33568;45.286;9.900;2023-12-20T12:03:17;32.60;;;26.45;;
47804;SDS011;33568;45.286;9.900;2023-12-20T12:08:12;32.22;;;25.60;;
47804;SDS011;33568;45.286;9.900;2023-12-20T12:10:39;29.85;;;25.17;;
47804;SDS011;33568;45.286;9.900;2023-12-20T12:15:31;34.08;;;28.08;;
47804;SDS011;33568;45.286;9.900;2023-12-20T12:17:58;30.63;;;27.13;;
47804;SDS011;33568;45.286;9.900;2023-12-20T12:20:25;33.72;;;30.02;;
47804;SDS011;33568;45.286;9.900;2023-12-20T12:22:59;36.95;;;30.92;;
47804;SDS011;33568;45.286;9.900;2023-12-20T12:25:26;33.50;;;29.95;;
47804;SDS011;33568;45.286;9.900;2023-12-20T12:27:55;36.13;;;29.50;;
47804;SDS011;33568;45.286;9.900;2023-12-20T12:30:22;39.17;;;32.40;;
47804;SDS011;33568;45.286;9.900;2023-12-20T12:32:50;36.65;;;32.60;;
47804;SDS011;33568;45.286;9.900;2023-12-20T12:35:18;41.97;;;33.17;;
47804;SDS011;33568;45.286;9.900;2023-12-20T12:37:45;40.47;;;32.40;;
47804;SDS011;33568;45.286;9.900;2023-12-20T12:42:40;37.95;;;31.27;;
47804;SDS011;33568;45.286;9.900;2023-12-20T12:45:07;37.45;;;32.33;;
47804;SDS011;33568;45.286;9.900;2023-12-20T12:47:35;38.63;;;34.00;;
47804;SDS011;33568;45.286;9.900;2023-12-20T12:50:01;41.13;;;33.30;;
47804;SDS011;33568;45.286;9.900;2023-12-20T12:52:28;44.10;;;33.13;;
47804;SDS011;33568;45.286;9.900;2023-12-20T12:54:56;47.22;;;38.60;;
47804;SDS011;33568;45.286;9.900;2023-12-20T12:57:22;47.20;;;37.85;;
47804;SDS011;33568;45.286;9.900;2023-12-20T12:59:49;45.60;;;36.30;;
47804;SDS011;33568;45.286;9.900;2023-12-20T13:02:16;47.80;;;36.78;;
47804;SDS011;33568;45.286;9.900;2023-12-20T13:04:42;42.53;;;32.75;;
47804;SDS011;33568;45.286;9.900;2023-12-20T13:07:09;47.58;;;34.72;;
47804;SDS011;33568;45.286;9.900;2023-12-20T13:09:39;43.58;;;33.08;;
47804;SDS011;33568;45.286;9.900;2023-12-20T13:12:06;40.60;;;32.33;;
47804;SDS011;33568;45.286;9.900;2023-12-20T13:14:33;40.10;;;33.10;;
47804;SDS011;33568;45.286;9.900;2023-12-20T13:17:03;40.72;;;33.22;;
47804;SDS011;33568;45.286;9.900;2023-12-20T13:19:30;37.22;;;31.40;;
47804;SDS011;33568;45.286;9.900;2023-12-20T13:24:24;46.45;;;34.60;;
47804;SDS011;33568;45.286;9.900;2023-12-20T13:26:50;34.03;;;29.67;;
47804;SDS011;33568;45.286;9.900;2023-12-20T13:29:18;34.35;;;29.38;;
47804;SDS011;33568;45.286;9.900;2023-12-20T13:31:44;36.65;;;30.48;;
47804;SDS011;33568;45.286;9.900;2023-12-20T13:34:11;38.42;;;31.00;;
47804;SDS011;33568;45.286;9.900;2023-12-20T13:36:38;35.20;;;29.85;;
47804;SDS011;33568;45.286;9.900;2023-12-20T13:39:04;37.10;;;29.95;;
47804;SDS011;33568;45.286;9.900;2023-12-20T13:41:31;35.65;;;29.45;;
47804;SDS011;33568;45.286;9.900;2023-12-20T13:43:57;39.33;;;30.73;;
47804;SDS011;33568;45.286;9.900;2023-12-20T13:46:24;41.65;;;31.00;;
47804;SDS011;33568;45.286;9.900;2023-12-20T13:48:50;36.25;;;30.02;;
47804;SDS011;33568;45.286;9.900;2023-12-20T13:51:17;39.17;;;33.08;;
47804;SDS011;33568;45.286;9.900;2023-12-20T13:53:43;40.25;;;32.20;;
47804;SDS011;33568;45.286;9.900;2023-12-20T13:56:10;39.95;;;31.75;;
47804;SDS011;33568;45.286;9.900;2023-12-20T13:58:36;37.58;;;31.67;;
47804;SDS011;33568;45.286;9.900;2023-12-20T14:03:29;45.42;;;30.25;;
47804;SDS011;33568;45.286;9.900;2023-12-20T14:05:56;37.03;;;30.58;;
47804;SDS011;33568;45.286;9.900;2023-12-20T14:10:49;43.33;;;31.95;;
47804;SDS011;33568;45.286;9.900;2023-12-20T14:13:16;42.83;;;30.02;;
47804;SDS011;33568;45.286;9.900;2023-12-20T14:15:42;43.42;;;31.50;;
47804;SDS011;33568;45.286;9.900;2023-12-20T14:18:08;45.00;;;33.38;;
47804;SDS011;33568;45.286;9.900;2023-12-20T14:20:35;38.83;;;32.47;;
47804;SDS011;33568;45.286;9.900;2023-12-20T14:25:29;41.78;;;31.40;;
47804;SDS011;33568;45.286;9.900;2023-12-20T14:27:57;38.50;;;29.77;;
47804;SDS011;33568;45.286;9.900;2023-12-20T14:32:49;39.15;;;30.30;;
47804;SDS011;33568;45.286;9.900;2023-12-20T14:37:42;44.45;;;32.70;;
47804;SDS011;33568;45.286;9.900;2023-12-20T14:42:41;41.67;;;30.70;;
47804;SDS011;33568;45.286;9.900;2023-12-20T14:45:08;40.58;;;32.15;;
47804;SDS011;33568;45.286;9.900;2023-12-20T14:47:35;42.15;;;33.10;;
47804;SDS011;33568;45.286;9.900;2023-12-20T14:50:02;40.28;;;31.60;;
47804;SDS011;33568;45.286;9.900;2023-12-20T14:52:30;40.83;;;34.25;;
47804;SDS011;33568;45.286;9.900;2023-12-20T14:54:57;35.92;;;31.58;;
47804;SDS011;33568;45.286;9.900;2023-12-20T14:57:24;43.47;;;34.35;;
47804;SDS011;33568;45.286;9.900;2023-12-20T14:59:50;36.70;;;32.22;;
47804;SDS011;33568;45.286;9.900;2023-12-20T15:02:17;39.97;;;32.97;;
47804;SDS011;33568;45.286;9.900;2023-12-20T15:07:09;39.58;;;32.53;;
47804;SDS011;33568;45.286;9.900;2023-12-20T15:09:36;41.20;;;32.35;;
47804;SDS011;33568;45.286;9.900;2023-12-20T15:14:29;40.30;;;33.25;;
47804;SDS011;33568;45.286;9.900;2023-12-20T15:16:55;41.53;;;33.75;;
47804;SDS011;33568;45.286;9.900;2023-12-20T15:19:22;42.20;;;34.92;;
47804;SDS011;33568;45.286;9.900;2023-12-20T15:21:48;42.13;;;34.78;;
47804;SDS011;33568;45.286;9.900;2023-12-20T15:24:16;42.97;;;36.03;;
47804;SDS011;33568;45.286;9.900;2023-12-20T15:26:45;45.05;;;36.05;;
47804;SDS011;33568;45.286;9.900;2023-12-20T15:29:12;45.35;;;35.20;;
47804;SDS011;33568;45.286;9.900;2023-12-20T15:31:43;41.75;;;35.92;;
47804;SDS011;33568;45.286;9.900;2023-12-20T15:34:11;42.22;;;34.25;;
47804;SDS011;33568;45.286;9.900;2023-12-20T15:36:39;43.70;;;33.25;;
47804;SDS011;33568;45.286;9.900;2023-12-20T15:39:05;40.70;;;33.50;;
47804;SDS011;33568;45.286;9.900;2023-12-20T15:41:34;50.33;;;36.00;;
47804;SDS011;33568;45.286;9.900;2023-12-20T15:44:01;46.28;;;37.70;;
47804;SDS011;33568;45.286;9.900;2023-12-20T15:48:54;49.47;;;39.42;;
47804;SDS011;33568;45.286;9.900;2023-12-20T15:53:47;43.00;;;35.17;;
47804;SDS011;33568;45.286;9.900;2023-12-20T15:56:13;49.80;;;39.78;;
47804;SDS011;33568;45.286;9.900;2023-12-20T15:58:41;48.00;;;39.25;;
47804;SDS011;33568;45.286;9.900;2023-12-20T16:01:07;53.53;;;41.22;;
47804;SDS011;33568;45.286;9.900;2023-12-20T16:03:34;51.58;;;39.35;;
47804;SDS011;33568;45.286;9.900;2023-12-20T16:06:01;51.60;;;38.72;;
47804;SDS011;33568;45.286;9.900;2023-12-20T16:08:28;48.03;;;38.88;;
47804;SDS011;33568;45.286;9.900;2023-12-20T16:10:55;57.17;;;38.33;;
47804;SDS011;33568;45.286;9.900;2023-12-20T16:13:21;45.08;;;38.10;;
47804;SDS011;33568;45.286;9.900;2023-12-20T16:15:47;52.15;;;38.28;;
47804;SDS011;33568;45.286;9.900;2023-12-20T16:18:14;47.22;;;38.53;;